Accueil
METAR-TAF:

METAR-TAF

Aéroports :

Baker City, Oregon, États-Unis

latitude: 44-50-14N, longitude: 117-48-33W, altitude: 1028 m

Observation

Le bulletin a été fait il y a 18 minutes, à 04:53 UTC
Vent 3 kt de sud/sud-ouest
Température 2°C
Humidité 93%
Pression 1018 hPa
Visibilité: 16.1 km
Nuages épars à une hauteur de 6500 ft

METAR: KBKE 190453Z AUTO 21003KT 10SM SCT065 02/01 A3007 RMK AO2 RAB14E23 SLP198 P0000 T00170011

Heure: 21:11 (05:11 UTC)

Prévision

Le bulletin a été fait il y a 2 heures et 6 minutes, à 03:05 UTC
Prévision valable du 19 à 03 UTC au 19 à 24 UTC
Vent 5 kt de direction variable
Visibilité: 10 km
Ciel couvert à une hauteur de 7000 ft

TAF: KBKE 190305Z 1903/1924 VRB05KT P6SM OVC070

Observations et prévisions météorologiques de plus de 4000 aéroports (messages METAR et TAF).

Les stations disponibles sont représentées par des disques jaunes et rouges sur la carte.

Passer la souris dessus pour voir le nom de la station.

Cliquer dessus pour voir les observations et prévisions météorologiques.

Pour changer de carte: cliquez sur les boutons verts avec une croix noire pour zoomer, sur le bouton vert avec un tiret pour effectuer un zoom arrière, ou sur les flèches vertes pour les cartes adjacentes.


METAR-TAF: